sensor_id;sensor_type;location;lat;lon;timestamp;temperature;humidity
55064;DHT22;40963;52.168;21.296;2023-08-31T00:00:11;16.30;99.90
55064;DHT22;40963;52.168;21.296;2023-08-31T00:02:39;16.30;99.90
55064;DHT22;40963;52.168;21.296;2023-08-31T00:05:05;16.30;99.90
55064;DHT22;40963;52.168;21.296;2023-08-31T00:07:31;16.30;99.90
55064;DHT22;40963;52.168;21.296;2023-08-31T00:09:57;16.30;99.90
55064;DHT22;40963;52.168;21.296;2023-08-31T00:12:23;16.30;99.90
55064;DHT22;40963;52.168;21.296;2023-08-31T00:14:52;16.30;99.90
55064;DHT22;40963;52.168;21.296;2023-08-31T00:17:18;16.20;99.90
55064;DHT22;40963;52.168;21.296;2023-08-31T00:19:44;16.20;99.90
55064;DHT22;40963;52.168;21.296;2023-08-31T00:22:10;16.20;99.90
55064;DHT22;40963;52.168;21.296;2023-08-31T00:24:35;16.10;99.90
55064;DHT22;40963;52.168;21.296;2023-08-31T00:27:03;16.10;99.90
55064;DHT22;40963;52.168;21.296;2023-08-31T00:29:29;16.10;99.90
55064;DHT22;40963;52.168;21.296;2023-08-31T00:31:55;16.10;99.90
55064;DHT22;40963;52.168;21.296;2023-08-31T00:34:21;16.00;99.90
55064;DHT22;40963;52.168;21.296;2023-08-31T00:36:47;16.00;99.90
55064;DHT22;40963;52.168;21.296;2023-08-31T00:39:13;16.10;99.90
55064;DHT22;40963;52.168;21.296;2023-08-31T00:41:40;16.10;99.90
55064;DHT22;40963;52.168;21.296;2023-08-31T00:44:05;16.10;99.90
55064;DHT22;40963;52.168;21.296;2023-08-31T00:46:32;16.00;99.90
55064;DHT22;40963;52.168;21.296;2023-08-31T00:48:58;16.00;99.90
55064;DHT22;40963;52.168;21.296;2023-08-31T00:51:24;16.00;99.90
55064;DHT22;40963;52.168;21.296;2023-08-31T00:53:51;16.00;99.90
55064;DHT22;40963;52.168;21.296;2023-08-31T00:56:20;16.00;99.90
55064;DHT22;40963;52.168;21.296;2023-08-31T00:58:46;16.00;99.90
55064;DHT22;40963;52.168;21.296;2023-08-31T01:01:22;16.00;99.90
55064;DHT22;40963;52.168;21.296;2023-08-31T01:04:03;16.00;99.90
55064;DHT22;40963;52.168;21.296;2023-08-31T01:09:39;16.00;99.90
55064;DHT22;40963;52.168;21.296;2023-08-31T01:12:11;16.00;99.90
55064;DHT22;40963;52.168;21.296;2023-08-31T01:14:53;15.90;99.90
55064;DHT22;40963;52.168;21.296;2023-08-31T01:17:20;15.90;99.90
55064;DHT22;40963;52.168;21.296;2023-08-31T01:19:55;15.90;99.90
55064;DHT22;40963;52.168;21.296;2023-08-31T01:22:33;15.90;99.90
55064;DHT22;40963;52.168;21.296;2023-08-31T01:25:05;15.90;99.90
55064;DHT22;40963;52.168;21.296;2023-08-31T01:27:31;16.00;99.90
55064;DHT22;40963;52.168;21.296;2023-08-31T01:29:57;15.90;99.90
55064;DHT22;40963;52.168;21.296;2023-08-31T01:32:23;15.90;99.90
55064;DHT22;40963;52.168;21.296;2023-08-31T01:34:51;15.90;99.90
55064;DHT22;40963;52.168;21.296;2023-08-31T01:37:47;15.80;99.90
55064;DHT22;40963;52.168;21.296;2023-08-31T01:40:23;15.80;99.90
55064;DHT22;40963;52.168;21.296;2023-08-31T01:42:50;15.80;99.90
55064;DHT22;40963;52.168;21.296;2023-08-31T01:45:19;15.80;99.90
55064;DHT22;40963;52.168;21.296;2023-08-31T01:47:46;15.80;99.90
55064;DHT22;40963;52.168;21.296;2023-08-31T01:50:12;15.80;99.90
55064;DHT22;40963;52.168;21.296;2023-08-31T01:52:37;15.80;99.90
55064;DHT22;40963;52.168;21.296;2023-08-31T01:55:04;15.80;99.90
55064;DHT22;40963;52.168;21.296;2023-08-31T01:57:31;15.70;99.90
55064;DHT22;40963;52.168;21.296;2023-08-31T01:59:57;15.70;99.90
55064;DHT22;40963;52.168;21.296;2023-08-31T02:02:23;15.70;99.90
55064;DHT22;40963;52.168;21.296;2023-08-31T02:04:48;15.70;99.90
55064;DHT22;40963;52.168;21.296;2023-08-31T02:07:15;15.70;99.90
55064;DHT22;40963;52.168;21.296;2023-08-31T02:09:41;15.70;99.90
55064;DHT22;40963;52.168;21.296;2023-08-31T02:12:07;15.70;99.90
55064;DHT22;40963;52.168;21.296;2023-08-31T02:14:35;15.70;99.90
55064;DHT22;40963;52.168;21.296;2023-08-31T02:17:00;15.70;99.90
55064;DHT22;40963;52.168;21.296;2023-08-31T02:19:26;15.70;99.90
55064;DHT22;40963;52.168;21.296;2023-08-31T02:21:52;15.70;99.90
55064;DHT22;40963;52.168;21.296;2023-08-31T02:24:17;15.60;99.90
55064;DHT22;40963;52.168;21.296;2023-08-31T02:26:43;15.60;99.90
55064;DHT22;40963;52.168;21.296;2023-08-31T02:29:08;15.60;99.90
55064;DHT22;40963;52.168;21.296;2023-08-31T02:31:34;15.60;99.90
55064;DHT22;40963;52.168;21.296;2023-08-31T02:33:59;15.60;99.90
55064;DHT22;40963;52.168;21.296;2023-08-31T02:36:25;15.60;99.90
55064;DHT22;40963;52.168;21.296;2023-08-31T02:38:50;15.50;99.90
55064;DHT22;40963;52.168;21.296;2023-08-31T02:41:18;15.50;99.90
55064;DHT22;40963;52.168;21.296;2023-08-31T02:43:44;15.40;99.90
55064;DHT22;40963;52.168;21.296;2023-08-31T02:46:09;15.50;99.90
55064;DHT22;40963;52.168;21.296;2023-08-31T02:48:35;15.40;99.90
55064;DHT22;40963;52.168;21.296;2023-08-31T02:51:01;15.40;99.90
55064;DHT22;40963;52.168;21.296;2023-08-31T02:53:29;15.40;99.90
55064;DHT22;40963;52.168;21.296;2023-08-31T02:55:54;15.40;99.90
55064;DHT22;40963;52.168;21.296;2023-08-31T02:58:20;15.50;99.90
55064;DHT22;40963;52.168;21.296;2023-08-31T03:00:45;15.40;99.90
55064;DHT22;40963;52.168;21.296;2023-08-31T03:03:15;15.40;99.90
55064;DHT22;40963;52.168;21.296;2023-08-31T03:05:40;15.40;99.90
55064;DHT22;40963;52.168;21.296;2023-08-31T03:08:06;15.40;99.90
55064;DHT22;40963;52.168;21.296;2023-08-31T03:10:32;15.40;99.90
55064;DHT22;40963;52.168;21.296;2023-08-31T03:12:57;15.40;99.90
55064;DHT22;40963;52.168;21.296;2023-08-31T03:15:23;15.30;99.90
55064;DHT22;40963;52.168;21.296;2023-08-31T03:17:49;15.40;99.90
55064;DHT22;40963;52.168;21.296;2023-08-31T03:20:14;15.30;99.90
55064;DHT22;40963;52.168;21.296;2023-08-31T03:22:40;15.40;99.90
55064;DHT22;40963;52.168;21.296;2023-08-31T03:25:06;15.40;99.90
55064;DHT22;40963;52.168;21.296;2023-08-31T03:27:32;15.40;99.90
55064;DHT22;40963;52.168;21.296;2023-08-31T03:29:57;15.30;99.90
55064;DHT22;40963;52.168;21.296;2023-08-31T03:32:23;15.30;99.90
55064;DHT22;40963;52.168;21.296;2023-08-31T03:34:49;15.40;99.90
55064;DHT22;40963;52.168;21.296;2023-08-31T03:37:15;15.40;99.90
55064;DHT22;40963;52.168;21.296;2023-08-31T03:39:41;15.30;99.90
55064;DHT22;40963;52.168;21.296;2023-08-31T03:42:11;15.40;99.90
55064;DHT22;40963;52.168;21.296;2023-08-31T03:44:36;15.40;99.90
55064;DHT22;40963;52.168;21.296;2023-08-31T03:47:03;15.40;99.90
55064;DHT22;40963;52.168;21.296;2023-08-31T03:49:28;15.30;99.90
55064;DHT22;40963;52.168;21.296;2023-08-31T03:51:55;15.30;99.90
55064;DHT22;40963;52.168;21.296;2023-08-31T03:54:21;15.30;99.90
55064;DHT22;40963;52.168;21.296;2023-08-31T03:56:46;15.30;99.90
55064;DHT22;40963;52.168;21.296;2023-08-31T03:59:12;15.30;99.90
55064;DHT22;40963;52.168;21.296;2023-08-31T04:01:38;15.30;99.90
55064;DHT22;40963;52.168;21.296;2023-08-31T04:04:04;15.20;99.90
55064;DHT22;40963;52.168;21.296;2023-08-31T04:06:30;15.30;99.90
55064;DHT22;40963;52.168;21.296;2023-08-31T04:08:56;15.20;99.90
55064;DHT22;40963;52.168;21.296;2023-08-31T04:11:22;15.30;99.90
55064;DHT22;40963;52.168;21.296;2023-08-31T04:13:47;15.20;99.90
55064;DHT22;40963;52.168;21.296;2023-08-31T04:16:13;15.20;99.90
55064;DHT22;40963;52.168;21.296;2023-08-31T04:18:39;15.20;99.90
55064;DHT22;40963;52.168;21.296;2023-08-31T04:21:05;15.20;99.90
55064;DHT22;40963;52.168;21.296;2023-08-31T04:23:31;15.20;99.90
55064;DHT22;40963;52.168;21.296;2023-08-31T04:25:57;15.20;99.90
55064;DHT22;40963;52.168;21.296;2023-08-31T04:28:23;15.30;99.90
55064;DHT22;40963;52.168;21.296;2023-08-31T04:30:49;15.20;99.90
55064;DHT22;40963;52.168;21.296;2023-08-31T04:33:15;15.20;99.90
55064;DHT22;40963;52.168;21.296;2023-08-31T04:35:41;15.20;99.90
55064;DHT22;40963;52.168;21.296;2023-08-31T04:38:07;15.30;99.90
55064;DHT22;40963;52.168;21.296;2023-08-31T04:40:32;15.30;99.90
55064;DHT22;40963;52.168;21.296;2023-08-31T04:42:58;15.30;99.90
55064;DHT22;40963;52.168;21.296;2023-08-31T04:45:23;15.30;99.90
55064;DHT22;40963;52.168;21.296;2023-08-31T04:47:49;15.30;99.90
55064;DHT22;40963;52.168;21.296;2023-08-31T04:50:16;15.30;99.90
55064;DHT22;40963;52.168;21.296;2023-08-31T04:52:42;15.30;99.90
55064;DHT22;40963;52.168;21.296;2023-08-31T04:55:08;15.30;99.90
55064;DHT22;40963;52.168;21.296;2023-08-31T04:57:34;15.30;99.90
55064;DHT22;40963;52.168;21.296;2023-08-31T04:59:59;15.30;99.90
55064;DHT22;40963;52.168;21.296;2023-08-31T05:02:25;15.40;99.90
55064;DHT22;40963;52.168;21.296;2023-08-31T05:04:51;15.40;99.90
55064;DHT22;40963;52.168;21.296;2023-08-31T05:07:17;15.30;99.90
55064;DHT22;40963;52.168;21.296;2023-08-31T05:09:42;15.30;99.90
55064;DHT22;40963;52.168;21.296;2023-08-31T05:12:08;15.30;99.90
55064;DHT22;40963;52.168;21.296;2023-08-31T05:14:33;15.30;99.90
55064;DHT22;40963;52.168;21.296;2023-08-31T05:17:06;15.30;99.90
55064;DHT22;40963;52.168;21.296;2023-08-31T05:19:31;15.30;99.90
55064;DHT22;40963;52.168;21.296;2023-08-31T05:21:57;15.30;99.90
55064;DHT22;40963;52.168;21.296;2023-08-31T05:24:23;15.30;99.90
55064;DHT22;40963;52.168;21.296;2023-08-31T05:26:49;15.30;99.90
55064;DHT22;40963;52.168;21.296;2023-08-31T05:29:15;15.30;99.90
55064;DHT22;40963;52.168;21.296;2023-08-31T05:31:40;15.30;99.90
55064;DHT22;40963;52.168;21.296;2023-08-31T05:34:06;15.40;99.90
55064;DHT22;40963;52.168;21.296;2023-08-31T05:36:31;15.40;99.90
55064;DHT22;40963;52.168;21.296;2023-08-31T05:38:57;15.40;99.90
55064;DHT22;40963;52.168;21.296;2023-08-31T05:41:22;15.40;99.90
55064;DHT22;40963;52.168;21.296;2023-08-31T05:43:48;15.40;99.90
55064;DHT22;40963;52.168;21.296;2023-08-31T05:46:14;15.40;99.90
55064;DHT22;40963;52.168;21.296;2023-08-31T05:48:39;15.40;99.90
55064;DHT22;40963;52.168;21.296;2023-08-31T05:51:05;15.50;99.90
55064;DHT22;40963;52.168;21.296;2023-08-31T05:53:31;15.50;99.90
55064;DHT22;40963;52.168;21.296;2023-08-31T05:55:58;15.50;99.90
55064;DHT22;40963;52.168;21.296;2023-08-31T05:58:34;15.50;99.90
55064;DHT22;40963;52.168;21.296;2023-08-31T06:01:01;15.50;99.90
55064;DHT22;40963;52.168;21.296;2023-08-31T06:03:27;15.60;99.90
55064;DHT22;40963;52.168;21.296;2023-08-31T06:05:55;15.60;99.90
55064;DHT22;40963;52.168;21.296;2023-08-31T06:08:21;15.60;99.90
55064;DHT22;40963;52.168;21.296;2023-08-31T06:10:46;15.60;99.90
55064;DHT22;40963;52.168;21.296;2023-08-31T06:13:12;15.60;99.90
55064;DHT22;40963;52.168;21.296;2023-08-31T06:15:37;15.60;99.90
55064;DHT22;40963;52.168;21.296;2023-08-31T06:18:04;15.60;99.90
55064;DHT22;40963;52.168;21.296;2023-08-31T06:20:30;15.60;99.90
55064;DHT22;40963;52.168;21.296;2023-08-31T06:22:56;15.60;99.90
55064;DHT22;40963;52.168;21.296;2023-08-31T06:25:22;15.50;99.90
55064;DHT22;40963;52.168;21.296;2023-08-31T06:27:48;15.50;99.90
55064;DHT22;40963;52.168;21.296;2023-08-31T06:30:14;15.50;99.90
55064;DHT22;40963;52.168;21.296;2023-08-31T06:32:44;15.50;99.90
55064;DHT22;40963;52.168;21.296;2023-08-31T06:35:10;15.50;99.90
55064;DHT22;40963;52.168;21.296;2023-08-31T06:37:37;15.40;99.90
55064;DHT22;40963;52.168;21.296;2023-08-31T06:40:04;15.40;99.90
55064;DHT22;40963;52.168;21.296;2023-08-31T06:42:29;15.50;99.90
55064;DHT22;40963;52.168;21.296;2023-08-31T06:44:55;15.50;99.90
55064;DHT22;40963;52.168;21.296;2023-08-31T06:47:22;15.50;99.90
55064;DHT22;40963;52.168;21.296;2023-08-31T06:49:48;15.60;99.90
55064;DHT22;40963;52.168;21.296;2023-08-31T06:52:13;15.60;99.90
55064;DHT22;40963;52.168;21.296;2023-08-31T06:54:39;15.70;99.90
55064;DHT22;40963;52.168;21.296;2023-08-31T06:57:05;15.70;99.90
55064;DHT22;40963;52.168;21.296;2023-08-31T06:59:30;15.80;99.90
55064;DHT22;40963;52.168;21.296;2023-08-31T07:01:56;15.80;99.90
55064;DHT22;40963;52.168;21.296;2023-08-31T07:04:21;15.90;99.90
55064;DHT22;40963;52.168;21.296;2023-08-31T07:06:47;16.00;99.90
55064;DHT22;40963;52.168;21.296;2023-08-31T07:09:12;16.10;99.90
55064;DHT22;40963;52.168;21.296;2023-08-31T07:11:38;16.10;99.90
55064;DHT22;40963;52.168;21.296;2023-08-31T07:14:04;16.10;99.90
55064;DHT22;40963;52.168;21.296;2023-08-31T07:16:29;16.10;99.90
55064;DHT22;40963;52.168;21.296;2023-08-31T07:18:55;16.10;99.90
55064;DHT22;40963;52.168;21.296;2023-08-31T07:21:20;16.20;99.90
55064;DHT22;40963;52.168;21.296;2023-08-31T07:23:46;16.20;99.90
55064;DHT22;40963;52.168;21.296;2023-08-31T07:26:11;16.30;99.90
55064;DHT22;40963;52.168;21.296;2023-08-31T07:28:37;16.40;99.90
55064;DHT22;40963;52.168;21.296;2023-08-31T07:31:04;16.50;99.90
55064;DHT22;40963;52.168;21.296;2023-08-31T07:33:30;16.50;99.90
55064;DHT22;40963;52.168;21.296;2023-08-31T07:36:03;16.50;99.90
55064;DHT22;40963;52.168;21.296;2023-08-31T07:38:30;16.60;99.90
55064;DHT22;40963;52.168;21.296;2023-08-31T07:40:56;16.70;99.90
55064;DHT22;40963;52.168;21.296;2023-08-31T07:43:22;16.70;99.90
55064;DHT22;40963;52.168;21.296;2023-08-31T07:45:48;16.80;99.90
55064;DHT22;40963;52.168;21.296;2023-08-31T07:48:14;16.90;99.90
55064;DHT22;40963;52.168;21.296;2023-08-31T07:50:43;17.00;99.90
55064;DHT22;40963;52.168;21.296;2023-08-31T07:53:09;17.10;99.90
55064;DHT22;40963;52.168;21.296;2023-08-31T07:55:34;17.10;99.90
55064;DHT22;40963;52.168;21.296;2023-08-31T07:58:03;17.10;99.90
55064;DHT22;40963;52.168;21.296;2023-08-31T08:00:28;17.10;99.90
55064;DHT22;40963;52.168;21.296;2023-08-31T08:02:54;17.10;99.90
55064;DHT22;40963;52.168;21.296;2023-08-31T08:05:20;17.20;99.90
55064;DHT22;40963;52.168;21.296;2023-08-31T08:07:45;17.20;99.90
55064;DHT22;40963;52.168;21.296;2023-08-31T08:10:11;17.20;99.90
55064;DHT22;40963;52.168;21.296;2023-08-31T08:12:38;17.30;99.90
55064;DHT22;40963;52.168;21.296;2023-08-31T08:15:05;17.40;99.90
55064;DHT22;40963;52.168;21.296;2023-08-31T08:17:32;17.50;99.90
55064;DHT22;40963;52.168;21.296;2023-08-31T08:19:58;17.50;99.90
55064;DHT22;40963;52.168;21.296;2023-08-31T08:22:24;17.70;99.90
55064;DHT22;40963;52.168;21.296;2023-08-31T08:24:50;17.80;99.90
55064;DHT22;40963;52.168;21.296;2023-08-31T08:27:15;17.80;99.90
55064;DHT22;40963;52.168;21.296;2023-08-31T08:29:43;17.90;99.90
55064;DHT22;40963;52.168;21.296;2023-08-31T08:32:09;18.00;99.90
55064;DHT22;40963;52.168;21.296;2023-08-31T08:34:34;18.00;99.90
55064;DHT22;40963;52.168;21.296;2023-08-31T08:37:00;18.00;99.90
55064;DHT22;40963;52.168;21.296;2023-08-31T08:39:26;18.00;99.90
55064;DHT22;40963;52.168;21.296;2023-08-31T08:41:54;18.10;99.90
55064;DHT22;40963;52.168;21.296;2023-08-31T08:44:22;18.20;99.90
55064;DHT22;40963;52.168;21.296;2023-08-31T08:46:49;18.30;99.90
55064;DHT22;40963;52.168;21.296;2023-08-31T08:49:16;18.30;99.90
55064;DHT22;40963;52.168;21.296;2023-08-31T08:51:42;18.40;99.90
55064;DHT22;40963;52.168;21.296;2023-08-31T08:54:08;18.50;99.90
55064;DHT22;40963;52.168;21.296;2023-08-31T08:56:33;18.50;99.90
55064;DHT22;40963;52.168;21.296;2023-08-31T08:59:00;18.60;99.90
55064;DHT22;40963;52.168;21.296;2023-08-31T09:01:26;18.50;99.90
55064;DHT22;40963;52.168;21.296;2023-08-31T09:03:52;18.60;99.90
55064;DHT22;40963;52.168;21.296;2023-08-31T09:06:17;18.60;99.90
55064;DHT22;40963;52.168;21.296;2023-08-31T09:08:43;18.70;99.90
55064;DHT22;40963;52.168;21.296;2023-08-31T09:11:09;18.80;99.90
55064;DHT22;40963;52.168;21.296;2023-08-31T09:13:44;18.90;99.90
55064;DHT22;40963;52.168;21.296;2023-08-31T09:18:48;19.00;99.90
55064;DHT22;40963;52.168;21.296;2023-08-31T09:21:14;19.10;99.90
55064;DHT22;40963;52.168;21.296;2023-08-31T09:23:39;19.20;99.90
55064;DHT22;40963;52.168;21.296;2023-08-31T09:26:05;19.30;99.90
55064;DHT22;40963;52.168;21.296;2023-08-31T09:28:31;19.40;99.90
55064;DHT22;40963;52.168;21.296;2023-08-31T09:31:07;19.50;99.90
55064;DHT22;40963;52.168;21.296;2023-08-31T09:33:35;19.60;99.90
55064;DHT22;40963;52.168;21.296;2023-08-31T09:36:06;19.70;99.90
55064;DHT22;40963;52.168;21.296;2023-08-31T09:38:33;19.70;99.90
55064;DHT22;40963;52.168;21.296;2023-08-31T09:41:06;19.80;99.90
55064;DHT22;40963;52.168;21.296;2023-08-31T09:43:32;19.80;99.90
55064;DHT22;40963;52.168;21.296;2023-08-31T09:45:58;19.80;99.90
55064;DHT22;40963;52.168;21.296;2023-08-31T09:48:26;19.80;99.90
55064;DHT22;40963;52.168;21.296;2023-08-31T09:50:52;19.80;99.90
55064;DHT22;40963;52.168;21.296;2023-08-31T09:53:20;19.90;99.90
55064;DHT22;40963;52.168;21.296;2023-08-31T09:55:47;20.00;99.90
55064;DHT22;40963;52.168;21.296;2023-08-31T09:58:18;20.10;99.90
55064;DHT22;40963;52.168;21.296;2023-08-31T10:00:45;20.10;99.40
55064;DHT22;40963;52.168;21.296;2023-08-31T10:03:12;20.10;98.80
55064;DHT22;40963;52.168;21.296;2023-08-31T10:05:43;20.10;98.40
55064;DHT22;40963;52.168;21.296;2023-08-31T10:08:09;20.10;98.10
55064;DHT22;40963;52.168;21.296;2023-08-31T10:10:35;20.10;98.40
55064;DHT22;40963;52.168;21.296;2023-08-31T10:13:03;20.20;98.40
55064;DHT22;40963;52.168;21.296;2023-08-31T10:15:32;20.30;98.30
55064;DHT22;40963;52.168;21.296;2023-08-31T10:18:04;20.40;97.40
55064;DHT22;40963;52.168;21.296;2023-08-31T10:20:31;20.50;96.80
55064;DHT22;40963;52.168;21.296;2023-08-31T10:23:02;20.60;95.80
55064;DHT22;40963;52.168;21.296;2023-08-31T10:26:01;20.70;96.20
55064;DHT22;40963;52.168;21.296;2023-08-31T10:28:29;20.80;95.40
55064;DHT22;40963;52.168;21.296;2023-08-31T10:33:41;21.00;94.40
55064;DHT22;40963;52.168;21.296;2023-08-31T10:36:17;21.00;93.20
55064;DHT22;40963;52.168;21.296;2023-08-31T10:41:22;21.20;92.70
55064;DHT22;40963;52.168;21.296;2023-08-31T10:43:50;21.20;92.60
55064;DHT22;40963;52.168;21.296;2023-08-31T10:46:36;21.10;92.50
55064;DHT22;40963;52.168;21.296;2023-08-31T10:51:41;21.10;93.10
55064;DHT22;40963;52.168;21.296;2023-08-31T10:54:12;21.00;92.90
55064;DHT22;40963;52.168;21.296;2023-08-31T10:59:26;20.90;93.30
55064;DHT22;40963;52.168;21.296;2023-08-31T11:01:56;20.80;93.40
55064;DHT22;40963;52.168;21.296;2023-08-31T11:04:26;20.80;93.30
55064;DHT22;40963;52.168;21.296;2023-08-31T11:07:13;20.70;93.60
55064;DHT22;40963;52.168;21.296;2023-08-31T11:09:40;20.70;94.60
55064;DHT22;40963;52.168;21.296;2023-08-31T11:12:06;20.80;95.00
55064;DHT22;40963;52.168;21.296;2023-08-31T11:14:32;20.80;95.20
55064;DHT22;40963;52.168;21.296;2023-08-31T11:16:59;20.90;95.30
55064;DHT22;40963;52.168;21.296;2023-08-31T11:19:26;20.90;95.50
55064;DHT22;40963;52.168;21.296;2023-08-31T11:21:54;21.00;95.40
55064;DHT22;40963;52.168;21.296;2023-08-31T11:24:19;21.00;95.30
55064;DHT22;40963;52.168;21.296;2023-08-31T11:26:49;21.00;94.90
55064;DHT22;40963;52.168;21.296;2023-08-31T11:29:15;20.90;95.00
55064;DHT22;40963;52.168;21.296;2023-08-31T11:31:41;20.90;94.60
55064;DHT22;40963;52.168;21.296;2023-08-31T11:34:07;20.90;94.90
55064;DHT22;40963;52.168;21.296;2023-08-31T11:36:37;20.90;95.10
55064;DHT22;40963;52.168;21.296;2023-08-31T11:39:03;20.90;95.10
55064;DHT22;40963;52.168;21.296;2023-08-31T11:41:36;20.90;95.10
55064;DHT22;40963;52.168;21.296;2023-08-31T11:44:04;21.00;95.30
55064;DHT22;40963;52.168;21.296;2023-08-31T11:46:30;21.00;95.50
55064;DHT22;40963;52.168;21.296;2023-08-31T11:48:58;21.00;95.50
55064;DHT22;40963;52.168;21.296;2023-08-31T11:51:24;21.10;95.50
55064;DHT22;40963;52.168;21.296;2023-08-31T11:53:50;21.10;95.00
55064;DHT22;40963;52.168;21.296;2023-08-31T11:56:16;21.20;95.30
55064;DHT22;40963;52.168;21.296;2023-08-31T11:58:42;21.30;95.40
55064;DHT22;40963;52.168;21.296;2023-08-31T12:01:08;21.40;95.00
55064;DHT22;40963;52.168;21.296;2023-08-31T12:03:43;21.60;94.40
55064;DHT22;40963;52.168;21.296;2023-08-31T12:06:15;21.60;92.90
55064;DHT22;40963;52.168;21.296;2023-08-31T12:08:41;21.60;92.50
55064;DHT22;40963;52.168;21.296;2023-08-31T12:11:07;21.70;92.90
55064;DHT22;40963;52.168;21.296;2023-08-31T12:13:32;21.80;92.50
55064;DHT22;40963;52.168;21.296;2023-08-31T12:15:58;21.90;91.50
55064;DHT22;40963;52.168;21.296;2023-08-31T12:18:29;22.00;90.30
55064;DHT22;40963;52.168;21.296;2023-08-31T12:20:55;22.10;88.40
55064;DHT22;40963;52.168;21.296;2023-08-31T12:23:22;22.10;85.90
55064;DHT22;40963;52.168;21.296;2023-08-31T12:25:48;22.10;84.40
55064;DHT22;40963;52.168;21.296;2023-08-31T12:28:16;22.10;82.90
55064;DHT22;40963;52.168;21.296;2023-08-31T12:30:42;22.00;82.40
55064;DHT22;40963;52.168;21.296;2023-08-31T12:33:11;21.90;83.70
55064;DHT22;40963;52.168;21.296;2023-08-31T12:35:37;22.00;85.70
55064;DHT22;40963;52.168;21.296;2023-08-31T12:38:03;22.00;86.50
55064;DHT22;40963;52.168;21.296;2023-08-31T12:40:29;22.00;87.10
55064;DHT22;40963;52.168;21.296;2023-08-31T12:42:55;21.90;87.00
55064;DHT22;40963;52.168;21.296;2023-08-31T12:45:20;21.90;86.90
55064;DHT22;40963;52.168;21.296;2023-08-31T12:47:46;21.80;87.50
55064;DHT22;40963;52.168;21.296;2023-08-31T12:50:13;21.80;87.90
55064;DHT22;40963;52.168;21.296;2023-08-31T12:52:38;21.90;87.50
55064;DHT22;40963;52.168;21.296;2023-08-31T12:55:10;21.90;86.80
55064;DHT22;40963;52.168;21.296;2023-08-31T12:57:35;21.90;86.10
55064;DHT22;40963;52.168;21.296;2023-08-31T13:00:02;21.90;85.30
55064;DHT22;40963;52.168;21.296;2023-08-31T13:02:30;21.80;85.50
55064;DHT22;40963;52.168;21.296;2023-08-31T13:04:55;21.80;86.70
55064;DHT22;40963;52.168;21.296;2023-08-31T13:07:21;21.80;86.70
55064;DHT22;40963;52.168;21.296;2023-08-31T13:09:47;21.80;87.10
55064;DHT22;40963;52.168;21.296;2023-08-31T13:12:12;21.80;87.20
55064;DHT22;40963;52.168;21.296;2023-08-31T13:14:38;21.70;87.70
55064;DHT22;40963;52.168;21.296;2023-08-31T13:17:04;21.60;89.20
55064;DHT22;40963;52.168;21.296;2023-08-31T13:19:31;21.60;90.90
55064;DHT22;40963;52.168;21.296;2023-08-31T13:21:57;21.60;91.60
55064;DHT22;40963;52.168;21.296;2023-08-31T13:24:22;21.70;91.30
55064;DHT22;40963;52.168;21.296;2023-08-31T13:26:48;21.70;90.70
55064;DHT22;40963;52.168;21.296;2023-08-31T13:29:14;21.70;90.40
55064;DHT22;40963;52.168;21.296;2023-08-31T13:31:40;21.70;88.70
55064;DHT22;40963;52.168;21.296;2023-08-31T13:34:05;21.60;89.10
55064;DHT22;40963;52.168;21.296;2023-08-31T13:36:36;21.60;88.90
55064;DHT22;40963;52.168;21.296;2023-08-31T13:39:02;21.60;90.20
55064;DHT22;40963;52.168;21.296;2023-08-31T13:41:29;21.70;90.00
55064;DHT22;40963;52.168;21.296;2023-08-31T13:43:55;21.80;89.40
55064;DHT22;40963;52.168;21.296;2023-08-31T13:46:21;21.80;89.50
55064;DHT22;40963;52.168;21.296;2023-08-31T13:48:46;21.80;90.00
55064;DHT22;40963;52.168;21.296;2023-08-31T13:51:13;21.90;88.30
55064;DHT22;40963;52.168;21.296;2023-08-31T13:53:39;22.00;86.70
55064;DHT22;40963;52.168;21.296;2023-08-31T13:56:04;22.00;86.30
55064;DHT22;40963;52.168;21.296;2023-08-31T13:58:30;22.10;84.70
55064;DHT22;40963;52.168;21.296;2023-08-31T14:00:56;22.10;83.60
55064;DHT22;40963;52.168;21.296;2023-08-31T14:03:21;22.10;83.20
55064;DHT22;40963;52.168;21.296;2023-08-31T14:05:50;22.20;83.20
55064;DHT22;40963;52.168;21.296;2023-08-31T14:08:15;22.30;83.90
55064;DHT22;40963;52.168;21.296;2023-08-31T14:10:41;22.40;83.20
55064;DHT22;40963;52.168;21.296;2023-08-31T14:13:07;22.40;83.20
55064;DHT22;40963;52.168;21.296;2023-08-31T14:15:33;22.50;83.50
55064;DHT22;40963;52.168;21.296;2023-08-31T14:17:58;22.60;82.60
55064;DHT22;40963;52.168;21.296;2023-08-31T14:20:24;22.60;81.50
55064;DHT22;40963;52.168;21.296;2023-08-31T14:22:49;22.60;80.50
55064;DHT22;40963;52.168;21.296;2023-08-31T14:25:16;22.60;80.10
55064;DHT22;40963;52.168;21.296;2023-08-31T14:27:42;22.60;79.40
55064;DHT22;40963;52.168;21.296;2023-08-31T14:30:08;22.50;78.70
55064;DHT22;40963;52.168;21.296;2023-08-31T14:32:34;22.40;77.80
55064;DHT22;40963;52.168;21.296;2023-08-31T14:35:00;22.30;76.90
55064;DHT22;40963;52.168;21.296;2023-08-31T14:37:25;22.20;77.50
55064;DHT22;40963;52.168;21.296;2023-08-31T14:39:52;22.10;78.40
55064;DHT22;40963;52.168;21.296;2023-08-31T14:42:17;22.00;79.00
55064;DHT22;40963;52.168;21.296;2023-08-31T14:44:46;21.70;79.10
55064;DHT22;40963;52.168;21.296;2023-08-31T14:47:12;21.50;80.00
55064;DHT22;40963;52.168;21.296;2023-08-31T14:49:41;21.30;80.80
55064;DHT22;40963;52.168;21.296;2023-08-31T14:52:06;21.00;82.30
55064;DHT22;40963;52.168;21.296;2023-08-31T14:54:33;20.80;84.20
55064;DHT22;40963;52.168;21.296;2023-08-31T14:56:59;20.60;86.50
55064;DHT22;40963;52.168;21.296;2023-08-31T14:59:25;20.30;88.30
55064;DHT22;40963;52.168;21.296;2023-08-31T15:01:51;20.00;90.00
55064;DHT22;40963;52.168;21.296;2023-08-31T15:04:17;19.70;91.70
55064;DHT22;40963;52.168;21.296;2023-08-31T15:06:43;19.40;94.20
55064;DHT22;40963;52.168;21.296;2023-08-31T15:09:09;19.10;96.60
55064;DHT22;40963;52.168;21.296;2023-08-31T15:11:35;18.80;98.80
55064;DHT22;40963;52.168;21.296;2023-08-31T15:14:02;18.60;99.90
55064;DHT22;40963;52.168;21.296;2023-08-31T15:16:29;18.30;99.90
55064;DHT22;40963;52.168;21.296;2023-08-31T15:18:55;18.20;99.90
55064;DHT22;40963;52.168;21.296;2023-08-31T15:21:21;18.00;99.90
55064;DHT22;40963;52.168;21.296;2023-08-31T15:23:47;17.80;99.90
55064;DHT22;40963;52.168;21.296;2023-08-31T15:26:12;17.60;99.90
55064;DHT22;40963;52.168;21.296;2023-08-31T15:28:43;17.50;99.90